• Join FlightAware (Why Join?)
  • Login
  • US Flag 
11:15AM EDT


 

Airport Tracker/Info


-or-


 

Live Flight TrackerFlight Track Log ✈ PWA601 ✈ 03-Jul-2013 ✈ KLEB - KPWK

Flight Track Log - Related Links

Times and Time Zones

All times are in EDT time to prevent confusion due to time zone crossing. See the PWA601 flight status page for this flight to view local times or setup timezone preferences in your user account.

Time Position Orientation Groundspeed Altitude Reporting Facility
EDT Latitude Longitude Course Direction KTS MPH feet Rate Location/Type
06:20PM 43.5675 -72.3742 262° West 454 522 5,000  Level Boston Center
06:21PM 43.5569 -72.4803 262° West 378 435 8,600 3,060 Climbing Boston Center
06:22PM 43.5486 -72.5861 264° West 317 365 11,200 2,700 Climbing Boston Center
06:23PM 43.5381 -72.7036 263° West 307 353 14,100 2,520 Climbing Boston Center
06:24PM 43.5272 -72.8294 263° West 321 369 16,300 2,160 Climbing Boston Center
06:25PM 43.5164 -72.9583 263° West 337 388 18,500 1,980 Climbing Boston Center
06:26PM 43.5011 -73.0756 260° West 342 394 20,300 1,560 Climbing Boston Center
06:27PM 43.4900 -73.1869 262° West 354 407 21,700 1,860 Climbing Boston Center
06:28PM 43.4764 -73.3556 264° West 365 420 24,100 1,860 Climbing Boston Center
06:29PM 43.4606 -73.4928 261° West 371 427 25,500 1,260 Climbing Boston Center
06:30PM 43.4467 -73.6356 262° West 371 427 26,900 1,140 Climbing Boston Center
06:31PM 43.4281 -73.8094 262° West 376 433 28,100 1,080 Climbing Boston Center
06:32PM 43.4136 -73.9578 262° West 392 451 29,100 960 Climbing Boston Center
06:33PM 43.3967 -74.1258 262° West 392 451 30,100 900 Climbing Boston Center
06:34PM 43.3797 -74.2742 261° West 397 457 31,000 900 Climbing Boston Center
06:35PM 43.3647 -74.4222 262° West 402 463 32,000 900 Climbing Boston Center
06:36PM 43.3497 -74.5700 262° West 402 463 32,900 900 Climbing Boston Center
06:37PM 43.3342 -74.7181 262° West 402 463 33,900 900 Climbing Boston Center
06:38PM 43.3167 -74.8631 261° West 396 456 34,800 900 Climbing Boston Center
06:39PM 43.3011 -75.0078 262° West 390 449 35,800 900 Climbing Boston Center
06:40PM 43.2858 -75.1214 260° West 385 443 36,600 1,080 Climbing Boston Center
06:41PM 43.2689 -75.3031 263° West 391 450 38,000 660 Climbing Boston Center
06:42PM 43.2678 -75.4372 269° West 396 456 38,000  Level Boston Center
06:43PM 43.2619 -75.5767 267° West 396 456 38,000  Level Boston Center
06:44PM 43.2203 -75.7169 248° West 391 450 38,000  Level Boston Center
06:45PM 43.1786 -75.8569 248° West 398 458 38,000  Level Boston Center
06:46PM 43.1367 -76.0028 249° West 408 470 38,000  Level Boston Center
06:47PM 43.0925 -76.1481 247° West 408 470 38,000  Level Boston Center
06:49PM 43.0278 -76.3767 249° West 401 461 38,000  Level Cleveland Center
06:50PM 43.0061 -76.5314 259° West 407 468 38,000  Level Cleveland Center
06:51PM 43.0056 -76.6933 270° West 418 481 38,000  Level Cleveland Center
06:52PM 43.0089 -76.8636 272° West 418 481 38,000  Level Cleveland Center
06:53PM 43.0036 -77.0231 267° West 423 487 38,000  Level Cleveland Center
06:54PM 43.0000 -77.1822 268° West 423 487 38,000  Level Cleveland Center
06:55PM 42.9961 -77.3386 268° West 423 487 38,000  Level Cleveland Center
06:56PM 42.9922 -77.4978 268° West 423 487 38,000  Level Cleveland Center
06:57PM 42.9881 -77.6542 268° West 423 487 38,000  Level Cleveland Center
06:58PM 42.9856 -77.8131 269° West 423 487 38,000  Level Cleveland Center
06:59PM 42.9789 -77.9667 267° West 423 487 38,000  Level Cleveland Center
07:00PM 42.9778 -78.1172 269° West 430 495 38,000  Level Cleveland Center
07:01PM 42.9708 -78.2736 267° West 425 489 38,000  Level Cleveland Center
07:02PM 42.9675 -78.4297 268° West 425 489 38,000  Level Cleveland Center
07:03PM 42.9619 -78.5889 267° West 425 489 38,000  Level Cleveland Center
07:04PM 42.9522 -78.7622 266° West 425 489 38,000  Level Cleveland Center
07:05PM 42.9442 -78.9128 266° West 425 489 38,000  Level Cleveland Center
07:06PM 42.9358 -79.0603 266° West 425 489 38,000  Level Cleveland Center
07:07PM 42.9272 -79.2108 266° West 425 489 38,000  Level Cleveland Center
07:08PM 42.9167 -79.3833 265° West 410 472 38,000  Level Toronto Center
07:09PM 42.9167 -79.5167 270° West 420 483 38,000  Level Toronto Center
07:10PM 42.9000 -79.6833 262° West 410 472 38,000  Level Toronto Center
07:11PM 42.9000 -79.8333 270° West 410 472 38,000  Level Toronto Center
07:12PM 42.9000 -80.0000 270° West 410 472 38,000  Level Toronto Center
07:13PM 42.8833 -80.1500 261° West 410 472 38,000  Level Toronto Center
07:14PM 42.8833 -80.3167 270° West 410 472 38,000  Level Toronto Center
07:15PM 42.8667 -80.4667 261° West 410 472 38,000  Level Toronto Center
07:16PM 42.8667 -80.6167 270° West 410 472 38,000  Level Toronto Center
07:17PM 42.8667 -80.7667 270° West 400 460 38,000  Level Toronto Center
07:18PM 42.8333 -80.9333 255° West 400 460 38,000  Level Toronto Center
07:19PM 42.8333 -81.0833 270° West 400 460 38,000  Level Toronto Center
07:20PM 42.8333 -81.2167 270° West 400 460 38,000  Level Toronto Center
07:21PM 42.8167 -81.3833 262° West 400 460 38,000  Level Toronto Center
07:22PM 42.8167 -81.5500 270° West 400 460 38,000  Level Toronto Center
07:23PM 42.8000 -81.6833 260° West 400 460 38,000  Level Toronto Center
07:24PM 42.8000 -81.8333 270° West 400 460 38,000  Level Toronto Center
07:25PM 42.7833 -82.0000 262° West 400 460 38,000  Level Toronto Center
07:26PM 42.7667 -82.1500 261° West 400 460 38,000  Level Toronto Center
07:27PM 42.7667 -82.2833 270° West 400 460 38,000  Level Toronto Center
07:28PM 42.7667 -82.4500 270° West 400 460 38,000  Level Toronto Center
07:29PM 42.7500 -82.6000 261° West 400 460 38,000  Level Toronto Center
07:30PM 42.7333 -82.7500 261° West 400 460 38,000  Level Toronto Center
07:31PM 42.7167 -82.9000 261° West 400 460 38,000  Level Toronto Center
07:32PM 42.7167 -83.0333 270° West 400 460 38,000 -120 Level Toronto Center
07:33PM 42.7167 -83.2000 270° West 400 460 37,800 -720 Descending Toronto Center
07:34PM 42.6833 -83.3500 253° West 400 460 36,600 -1,140 Descending Toronto Center
07:35PM 42.6833 -83.5167 270° West 410 472 35,600 -1,500 Descending Toronto Center
07:36PM 42.6833 -83.6667 270° West 420 483 33,700 -1,860 Descending Toronto Center
07:37PM 42.6500 -83.8333 255° West 440 506 31,900 -1,740 Descending Toronto Center
07:38PM 42.6333 -83.9833 261° West 440 506 30,300 -1,140 Descending Toronto Center
07:39PM 42.6503 -84.0522 289° West 437 503 30,200 -240 Descending Chicago Center
07:39PM 42.6369 -84.1961 263° West 437 503 30,000 -120 Descending Cleveland Center
07:40PM 42.6258 -84.3506 264° West 424 488 30,000  Level Cleveland Center
07:41PM 42.6350 -84.5064 275° West 419 482 30,000  Level Cleveland Center
07:43PM 42.6517 -84.7194 276° West 438 504 30,000  Level Chicago Center
07:44PM 42.6639 -84.8878 276° West 446 513 30,000  Level Chicago Center
07:45PM 42.6781 -85.0558 277° West 447 514 30,000 -720 Level Chicago Center
07:46PM 42.6656 -85.2167 264° West 431 496 28,600 -1,500 Descending Chicago Center
07:47PM 42.6253 -85.3978 253° West 417 480 26,900 -1,560 Descending Chicago Center
07:48PM 42.5917 -85.5464 253° West 413 475 25,400 -1,500 Descending Chicago Center
07:49PM 42.5578 -85.6994 253° West 418 481 23,900 -1,500 Descending Chicago Center
07:50PM 42.5219 -85.8500 252° West 418 481 22,300 -1,500 Descending Chicago Center
07:51PM 42.4872 -86.0069 253° West 430 495 20,800 -1,140 Descending Chicago Center
07:52PM 42.4608 -86.1706 258° West 445 512 20,000 -420 Descending Chicago Center
07:53PM 42.4531 -86.3311 266° West 430 495 20,000 -1,140 Level Chicago Center
07:54PM 42.4439 -86.5161 266° West 412 474 17,700 -2,280 Descending Chicago Center
07:55PM 42.4350 -86.6508 265° West 365 420 15,300 -2,280 Descending Chicago Center
07:56PM 42.4311 -86.7742 268° West 338 389 13,100 -2,160 Descending Chicago Center
07:57PM 42.4244 -86.8892 266° West 318 366 10,900 -2,040 Descending Chicago Center
07:58PM 42.4192 -86.9972 266° West 300 345 8,900 -1,920 Descending Chicago Center
07:59PM 42.4097 -87.0950 263° West 273 314 7,000 -2,040 Descending Chicago Center
08:00PM 42.4028 -87.2147 266° West 266 306 4,700 -1,980 Descending Chicago Center
08:01PM 42.3975 -87.3106 266° West 261 300 3,000 -840 Descending Chicago Center
08:02PM 42.3781 -87.4033 254° West 259 298 3,000  Level Chicago Center
08:03PM 42.3522 -87.4908 248° West 255 293 3,000  Level Chicago Center
08:04PM 42.3247 -87.5775 247° West 254 292 3,000  Level Chicago Center
08:05PM 42.3031 -87.6811 254° West 247 284 3,000 -60 Level Chicago Center
08:07PM 42.2939 -87.7594 261° West 232 267 2,900 -300 Descending Chicago Center
08:08PM 42.2828 -87.8333 259° West 218 251 2,400 -240 Descending Chicago Center
08:09PM 42.2800 -87.9117 267° West 213 245 2,400  Level Chicago Center
08:10PM 42.2703 -87.9681 257° West 192 221 2,400  Level Chicago Center
08:11PM 42.2197 -87.9592 173° South 163 188 2,400 -240 Level Chicago Center
08:12PM 42.1892 -87.9444 160° South 154 177 2,000 -420 Descending Chicago Center
08:15PM 42.1143 -87.9015 166° South  Level Estimated